Terminal Aerodrome Forecast
Issued by NWS Amarillo, TX

Home | Current Version | Previous Version | Text Only | Print | Product List | Glossary On
Versions: 1 2 3 4 5 6 7 8 9 10 11 12 13 14 15 16 17 18
000
FTUS44 KAMA 290600 AAA
TAFAMA
TAF AMD
KAMA 290655Z 2907/3006 35010KT P6SM SCT200
     FM291000 02011KT P6SM BKN080
     FM291600 05012KT P6SM SCT030 BKN080
     FM300100 08011KT P6SM OVC020=

USA.gov is the U.S. government's official web portal to all federal, state and local government web resources and services.